sensor_id;sensor_type;location;lat;lon;timestamp;P1;durP1;ratioP1;P2;durP2;ratioP2
18748;SDS011;9503;53.560;10.246;2022-08-07T00:02:06;15.60;;;9.20;;
18748;SDS011;9503;53.560;10.246;2022-08-07T00:04:32;15.80;;;9.10;;
18748;SDS011;9503;53.560;10.246;2022-08-07T00:07:00;15.87;;;10.07;;
18748;SDS011;9503;53.560;10.246;2022-08-07T00:09:27;16.67;;;9.53;;
18748;SDS011;9503;53.560;10.246;2022-08-07T00:11:53;14.93;;;9.30;;
18748;SDS011;9503;53.560;10.246;2022-08-07T00:14:20;16.47;;;9.80;;
18748;SDS011;9503;53.560;10.246;2022-08-07T00:16:47;20.10;;;10.10;;
18748;SDS011;9503;53.560;10.246;2022-08-07T00:19:14;18.60;;;10.33;;
18748;SDS011;9503;53.560;10.246;2022-08-07T00:21:40;19.33;;;11.93;;
18748;SDS011;9503;53.560;10.246;2022-08-07T00:24:09;21.60;;;12.07;;
18748;SDS011;9503;53.560;10.246;2022-08-07T00:26:36;20.83;;;12.13;;
18748;SDS011;9503;53.560;10.246;2022-08-07T00:29:03;18.70;;;11.63;;
18748;SDS011;9503;53.560;10.246;2022-08-07T00:31:29;16.07;;;10.00;;
18748;SDS011;9503;53.560;10.246;2022-08-07T00:33:56;17.83;;;10.37;;
18748;SDS011;9503;53.560;10.246;2022-08-07T00:36:22;17.20;;;10.93;;
18748;SDS011;9503;53.560;10.246;2022-08-07T00:38:49;21.77;;;11.70;;
18748;SDS011;9503;53.560;10.246;2022-08-07T00:41:17;22.23;;;11.90;;
18748;SDS011;9503;53.560;10.246;2022-08-07T00:43:50;20.63;;;12.37;;
18748;SDS011;9503;53.560;10.246;2022-08-07T00:46:17;20.43;;;12.37;;
18748;SDS011;9503;53.560;10.246;2022-08-07T00:48:44;20.03;;;12.33;;
18748;SDS011;9503;53.560;10.246;2022-08-07T00:51:10;21.47;;;12.43;;
18748;SDS011;9503;53.560;10.246;2022-08-07T00:53:37;22.00;;;11.53;;
18748;SDS011;9503;53.560;10.246;2022-08-07T00:56:04;18.10;;;11.00;;
18748;SDS011;9503;53.560;10.246;2022-08-07T00:58:32;21.80;;;11.33;;
18748;SDS011;9503;53.560;10.246;2022-08-07T01:00:59;22.83;;;12.40;;
18748;SDS011;9503;53.560;10.246;2022-08-07T01:03:25;21.67;;;12.23;;
18748;SDS011;9503;53.560;10.246;2022-08-07T01:05:52;16.27;;;10.30;;
18748;SDS011;9503;53.560;10.246;2022-08-07T01:08:21;17.13;;;10.57;;
18748;SDS011;9503;53.560;10.246;2022-08-07T01:10:48;21.17;;;11.90;;
18748;SDS011;9503;53.560;10.246;2022-08-07T01:13:14;17.43;;;10.97;;
18748;SDS011;9503;53.560;10.246;2022-08-07T01:15:42;21.73;;;11.73;;
18748;SDS011;9503;53.560;10.246;2022-08-07T01:18:11;20.87;;;11.07;;
18748;SDS011;9503;53.560;10.246;2022-08-07T01:20:41;18.83;;;10.67;;
18748;SDS011;9503;53.560;10.246;2022-08-07T01:23:12;20.67;;;11.37;;
18748;SDS011;9503;53.560;10.246;2022-08-07T01:25:40;19.30;;;11.90;;
18748;SDS011;9503;53.560;10.246;2022-08-07T01:28:08;24.87;;;12.23;;
18748;SDS011;9503;53.560;10.246;2022-08-07T01:30:34;21.10;;;12.50;;
18748;SDS011;9503;53.560;10.246;2022-08-07T01:33:02;23.60;;;11.90;;
18748;SDS011;9503;53.560;10.246;2022-08-07T01:35:29;18.20;;;11.50;;
18748;SDS011;9503;53.560;10.246;2022-08-07T01:37:56;21.97;;;12.07;;
18748;SDS011;9503;53.560;10.246;2022-08-07T01:40:24;20.07;;;9.97;;
18748;SDS011;9503;53.560;10.246;2022-08-07T01:42:53;20.33;;;10.77;;
18748;SDS011;9503;53.560;10.246;2022-08-07T01:45:20;18.10;;;10.10;;
18748;SDS011;9503;53.560;10.246;2022-08-07T01:47:46;16.17;;;9.87;;
18748;SDS011;9503;53.560;10.246;2022-08-07T01:50:14;18.20;;;10.07;;
18748;SDS011;9503;53.560;10.246;2022-08-07T01:52:41;19.93;;;10.03;;
18748;SDS011;9503;53.560;10.246;2022-08-07T01:55:10;17.67;;;10.03;;
18748;SDS011;9503;53.560;10.246;2022-08-07T01:57:39;17.33;;;9.60;;
18748;SDS011;9503;53.560;10.246;2022-08-07T02:00:08;15.00;;;9.63;;
18748;SDS011;9503;53.560;10.246;2022-08-07T02:02:37;13.97;;;9.23;;
18748;SDS011;9503;53.560;10.246;2022-08-07T02:05:09;16.03;;;9.57;;
18748;SDS011;9503;53.560;10.246;2022-08-07T02:07:39;20.37;;;9.53;;
18748;SDS011;9503;53.560;10.246;2022-08-07T02:10:09;18.07;;;9.93;;
18748;SDS011;9503;53.560;10.246;2022-08-07T02:12:40;22.10;;;10.67;;
18748;SDS011;9503;53.560;10.246;2022-08-07T02:15:08;18.63;;;9.67;;
18748;SDS011;9503;53.560;10.246;2022-08-07T02:17:36;19.27;;;10.23;;
18748;SDS011;9503;53.560;10.246;2022-08-07T02:20:05;17.50;;;10.43;;
18748;SDS011;9503;53.560;10.246;2022-08-07T02:22:34;17.27;;;9.37;;
18748;SDS011;9503;53.560;10.246;2022-08-07T02:25:04;14.30;;;9.27;;
18748;SDS011;9503;53.560;10.246;2022-08-07T02:27:31;15.67;;;9.70;;
18748;SDS011;9503;53.560;10.246;2022-08-07T02:30:02;16.43;;;9.27;;
18748;SDS011;9503;53.560;10.246;2022-08-07T02:32:30;15.93;;;8.87;;
18748;SDS011;9503;53.560;10.246;2022-08-07T02:35:00;16.07;;;7.90;;
18748;SDS011;9503;53.560;10.246;2022-08-07T02:37:30;15.23;;;9.57;;
18748;SDS011;9503;53.560;10.246;2022-08-07T02:39:59;15.73;;;8.37;;
18748;SDS011;9503;53.560;10.246;2022-08-07T02:42:28;15.77;;;9.73;;
18748;SDS011;9503;53.560;10.246;2022-08-07T02:44:55;18.47;;;9.33;;
18748;SDS011;9503;53.560;10.246;2022-08-07T02:47:24;16.80;;;9.33;;
18748;SDS011;9503;53.560;10.246;2022-08-07T02:49:52;17.67;;;9.63;;
18748;SDS011;9503;53.560;10.246;2022-08-07T02:52:25;20.17;;;9.77;;
18748;SDS011;9503;53.560;10.246;2022-08-07T02:54:57;19.00;;;9.73;;
18748;SDS011;9503;53.560;10.246;2022-08-07T02:57:27;18.47;;;9.90;;
18748;SDS011;9503;53.560;10.246;2022-08-07T02:59:56;15.73;;;9.53;;
18748;SDS011;9503;53.560;10.246;2022-08-07T03:02:27;18.43;;;9.93;;
18748;SDS011;9503;53.560;10.246;2022-08-07T03:04:54;17.63;;;9.87;;
18748;SDS011;9503;53.560;10.246;2022-08-07T03:07:22;18.87;;;9.80;;
18748;SDS011;9503;53.560;10.246;2022-08-07T03:09:51;20.70;;;9.47;;
18748;SDS011;9503;53.560;10.246;2022-08-07T03:12:20;16.07;;;9.87;;
18748;SDS011;9503;53.560;10.246;2022-08-07T03:14:47;21.10;;;10.20;;
18748;SDS011;9503;53.560;10.246;2022-08-07T03:17:16;18.73;;;9.83;;
18748;SDS011;9503;53.560;10.246;2022-08-07T03:19:44;15.60;;;8.97;;
18748;SDS011;9503;53.560;10.246;2022-08-07T03:22:12;21.13;;;10.07;;
18748;SDS011;9503;53.560;10.246;2022-08-07T03:24:43;18.07;;;10.17;;
18748;SDS011;9503;53.560;10.246;2022-08-07T03:27:12;18.60;;;10.17;;
18748;SDS011;9503;53.560;10.246;2022-08-07T03:29:41;18.23;;;10.10;;
18748;SDS011;9503;53.560;10.246;2022-08-07T03:32:11;20.93;;;10.53;;
18748;SDS011;9503;53.560;10.246;2022-08-07T03:34:42;18.07;;;10.23;;
18748;SDS011;9503;53.560;10.246;2022-08-07T03:37:15;19.33;;;9.27;;
18748;SDS011;9503;53.560;10.246;2022-08-07T03:39:46;15.93;;;10.00;;
18748;SDS011;9503;53.560;10.246;2022-08-07T03:42:14;19.80;;;9.90;;
18748;SDS011;9503;53.560;10.246;2022-08-07T03:44:55;21.07;;;10.37;;
18748;SDS011;9503;53.560;10.246;2022-08-07T03:47:22;20.13;;;10.23;;
18748;SDS011;9503;53.560;10.246;2022-08-07T03:49:50;18.30;;;10.10;;
18748;SDS011;9503;53.560;10.246;2022-08-07T03:52:17;18.13;;;9.60;;
18748;SDS011;9503;53.560;10.246;2022-08-07T03:54:46;21.17;;;11.47;;
18748;SDS011;9503;53.560;10.246;2022-08-07T03:57:13;21.97;;;11.03;;
18748;SDS011;9503;53.560;10.246;2022-08-07T03:59:41;20.00;;;11.07;;
18748;SDS011;9503;53.560;10.246;2022-08-07T04:02:09;23.73;;;11.67;;
18748;SDS011;9503;53.560;10.246;2022-08-07T04:04:36;17.60;;;10.47;;
18748;SDS011;9503;53.560;10.246;2022-08-07T04:07:04;22.67;;;11.00;;
18748;SDS011;9503;53.560;10.246;2022-08-07T04:09:34;22.73;;;10.97;;
18748;SDS011;9503;53.560;10.246;2022-08-07T04:12:02;21.83;;;11.10;;
18748;SDS011;9503;53.560;10.246;2022-08-07T04:14:30;21.23;;;11.03;;
18748;SDS011;9503;53.560;10.246;2022-08-07T04:16:59;22.43;;;11.03;;
18748;SDS011;9503;53.560;10.246;2022-08-07T04:19:28;22.03;;;12.00;;
18748;SDS011;9503;53.560;10.246;2022-08-07T04:21:55;25.73;;;11.30;;
18748;SDS011;9503;53.560;10.246;2022-08-07T04:24:23;22.77;;;11.40;;
18748;SDS011;9503;53.560;10.246;2022-08-07T04:26:51;23.60;;;10.73;;
18748;SDS011;9503;53.560;10.246;2022-08-07T04:29:18;17.73;;;10.90;;
18748;SDS011;9503;53.560;10.246;2022-08-07T04:31:45;25.57;;;10.87;;
18748;SDS011;9503;53.560;10.246;2022-08-07T04:34:12;19.30;;;10.63;;
18748;SDS011;9503;53.560;10.246;2022-08-07T04:36:39;20.17;;;10.27;;
18748;SDS011;9503;53.560;10.246;2022-08-07T04:39:06;17.87;;;10.00;;
18748;SDS011;9503;53.560;10.246;2022-08-07T04:41:36;20.27;;;11.37;;
18748;SDS011;9503;53.560;10.246;2022-08-07T04:44:02;19.33;;;11.03;;
18748;SDS011;9503;53.560;10.246;2022-08-07T04:46:31;21.73;;;10.90;;
18748;SDS011;9503;53.560;10.246;2022-08-07T04:49:04;17.43;;;10.27;;
18748;SDS011;9503;53.560;10.246;2022-08-07T04:51:40;18.13;;;9.63;;
18748;SDS011;9503;53.560;10.246;2022-08-07T04:54:15;16.83;;;9.30;;
18748;SDS011;9503;53.560;10.246;2022-08-07T04:56:50;17.17;;;9.80;;
18748;SDS011;9503;53.560;10.246;2022-08-07T04:59:24;16.97;;;9.80;;
18748;SDS011;9503;53.560;10.246;2022-08-07T05:01:58;17.33;;;9.83;;
18748;SDS011;9503;53.560;10.246;2022-08-07T05:04:30;17.10;;;9.20;;
18748;SDS011;9503;53.560;10.246;2022-08-07T05:07:08;22.63;;;10.97;;
18748;SDS011;9503;53.560;10.246;2022-08-07T05:09:41;21.40;;;11.10;;
18748;SDS011;9503;53.560;10.246;2022-08-07T05:12:15;20.07;;;11.57;;
18748;SDS011;9503;53.560;10.246;2022-08-07T05:14:45;23.90;;;12.93;;
18748;SDS011;9503;53.560;10.246;2022-08-07T05:17:14;21.93;;;12.57;;
18748;SDS011;9503;53.560;10.246;2022-08-07T05:19:46;24.07;;;11.67;;
18748;SDS011;9503;53.560;10.246;2022-08-07T05:22:15;18.70;;;11.17;;
18748;SDS011;9503;53.560;10.246;2022-08-07T05:24:44;28.93;;;13.63;;
18748;SDS011;9503;53.560;10.246;2022-08-07T05:27:12;26.27;;;13.53;;
18748;SDS011;9503;53.560;10.246;2022-08-07T05:29:42;25.50;;;13.47;;
18748;SDS011;9503;53.560;10.246;2022-08-07T05:32:10;27.30;;;13.93;;
18748;SDS011;9503;53.560;10.246;2022-08-07T05:34:41;28.17;;;14.87;;
18748;SDS011;9503;53.560;10.246;2022-08-07T05:37:09;26.93;;;14.67;;
18748;SDS011;9503;53.560;10.246;2022-08-07T05:39:39;29.07;;;15.00;;
18748;SDS011;9503;53.560;10.246;2022-08-07T05:42:06;24.67;;;13.83;;
18748;SDS011;9503;53.560;10.246;2022-08-07T05:44:35;18.63;;;11.33;;
18748;SDS011;9503;53.560;10.246;2022-08-07T05:47:05;15.73;;;10.50;;
18748;SDS011;9503;53.560;10.246;2022-08-07T05:49:34;16.27;;;10.63;;
18748;SDS011;9503;53.560;10.246;2022-08-07T05:52:04;17.33;;;10.50;;
18748;SDS011;9503;53.560;10.246;2022-08-07T05:54:32;16.20;;;10.17;;
18748;SDS011;9503;53.560;10.246;2022-08-07T05:57:00;15.47;;;9.60;;
18748;SDS011;9503;53.560;10.246;2022-08-07T05:59:28;12.20;;;8.47;;
18748;SDS011;9503;53.560;10.246;2022-08-07T06:01:59;12.47;;;7.17;;
18748;SDS011;9503;53.560;10.246;2022-08-07T06:04:28;11.18;;;7.30;;
18748;SDS011;9503;53.560;10.246;2022-08-07T06:07:03;9.55;;;6.72;;
18748;SDS011;9503;53.560;10.246;2022-08-07T06:09:31;11.38;;;7.35;;
18748;SDS011;9503;53.560;10.246;2022-08-07T06:11:59;9.90;;;6.68;;
18748;SDS011;9503;53.560;10.246;2022-08-07T06:14:26;8.60;;;6.72;;
18748;SDS011;9503;53.560;10.246;2022-08-07T06:16:54;11.65;;;7.57;;
18748;SDS011;9503;53.560;10.246;2022-08-07T06:19:24;11.38;;;7.43;;
18748;SDS011;9503;53.560;10.246;2022-08-07T06:21:53;10.25;;;7.22;;
18748;SDS011;9503;53.560;10.246;2022-08-07T06:24:21;11.77;;;7.10;;
18748;SDS011;9503;53.560;10.246;2022-08-07T06:26:48;9.15;;;5.97;;
18748;SDS011;9503;53.560;10.246;2022-08-07T06:29:16;10.30;;;6.40;;
18748;SDS011;9503;53.560;10.246;2022-08-07T06:31:43;12.55;;;6.90;;
18748;SDS011;9503;53.560;10.246;2022-08-07T06:34:10;9.63;;;5.88;;
18748;SDS011;9503;53.560;10.246;2022-08-07T06:36:40;9.18;;;5.88;;
18748;SDS011;9503;53.560;10.246;2022-08-07T06:39:10;7.60;;;6.03;;
18748;SDS011;9503;53.560;10.246;2022-08-07T06:41:39;10.35;;;6.50;;
18748;SDS011;9503;53.560;10.246;2022-08-07T06:44:09;12.10;;;5.80;;
18748;SDS011;9503;53.560;10.246;2022-08-07T06:49:08;8.90;;;5.80;;
18748;SDS011;9503;53.560;10.246;2022-08-07T06:51:36;8.63;;;5.03;;
18748;SDS011;9503;53.560;10.246;2022-08-07T06:54:06;14.13;;;6.03;;
18748;SDS011;9503;53.560;10.246;2022-08-07T06:56:37;9.73;;;5.82;;
18748;SDS011;9503;53.560;10.246;2022-08-07T06:59:09;10.75;;;5.07;;
18748;SDS011;9503;53.560;10.246;2022-08-07T07:01:41;11.57;;;5.82;;
18748;SDS011;9503;53.560;10.246;2022-08-07T07:04:09;9.48;;;5.13;;
18748;SDS011;9503;53.560;10.246;2022-08-07T07:06:37;10.35;;;4.78;;
18748;SDS011;9503;53.560;10.246;2022-08-07T07:09:19;7.60;;;4.93;;
18748;SDS011;9503;53.560;10.246;2022-08-07T07:12:04;6.90;;;4.28;;
18748;SDS011;9503;53.560;10.246;2022-08-07T07:14:44;7.93;;;5.00;;
18748;SDS011;9503;53.560;10.246;2022-08-07T07:17:16;7.72;;;4.05;;
18748;SDS011;9503;53.560;10.246;2022-08-07T07:19:51;5.97;;;3.77;;
18748;SDS011;9503;53.560;10.246;2022-08-07T07:22:21;10.85;;;4.57;;
18748;SDS011;9503;53.560;10.246;2022-08-07T07:24:52;17.02;;;5.10;;
18748;SDS011;9503;53.560;10.246;2022-08-07T07:27:20;7.07;;;4.20;;
18748;SDS011;9503;53.560;10.246;2022-08-07T07:29:53;6.47;;;3.90;;
18748;SDS011;9503;53.560;10.246;2022-08-07T07:32:24;8.63;;;4.70;;
18748;SDS011;9503;53.560;10.246;2022-08-07T07:34:56;5.35;;;3.50;;
18748;SDS011;9503;53.560;10.246;2022-08-07T07:37:26;5.78;;;4.00;;
18748;SDS011;9503;53.560;10.246;2022-08-07T07:39:59;5.45;;;4.00;;
18748;SDS011;9503;53.560;10.246;2022-08-07T07:42:29;6.85;;;3.33;;
18748;SDS011;9503;53.560;10.246;2022-08-07T07:45:00;10.57;;;3.72;;
18748;SDS011;9503;53.560;10.246;2022-08-07T07:47:29;4.15;;;3.53;;
18748;SDS011;9503;53.560;10.246;2022-08-07T07:50:02;4.57;;;3.80;;
18748;SDS011;9503;53.560;10.246;2022-08-07T07:52:32;4.07;;;3.33;;
18748;SDS011;9503;53.560;10.246;2022-08-07T07:55:04;6.00;;;3.70;;
18748;SDS011;9503;53.560;10.246;2022-08-07T07:57:33;6.72;;;3.53;;
18748;SDS011;9503;53.560;10.246;2022-08-07T08:00:02;6.22;;;3.55;;
18748;SDS011;9503;53.560;10.246;2022-08-07T08:02:32;5.72;;;4.10;;
18748;SDS011;9503;53.560;10.246;2022-08-07T08:05:04;8.45;;;4.53;;
18748;SDS011;9503;53.560;10.246;2022-08-07T08:07:33;8.30;;;4.38;;
18748;SDS011;9503;53.560;10.246;2022-08-07T08:10:06;7.80;;;4.30;;
18748;SDS011;9503;53.560;10.246;2022-08-07T08:12:35;5.30;;;3.75;;
18748;SDS011;9503;53.560;10.246;2022-08-07T08:15:04;5.90;;;3.83;;
18748;SDS011;9503;53.560;10.246;2022-08-07T08:17:33;4.90;;;3.97;;
18748;SDS011;9503;53.560;10.246;2022-08-07T08:20:03;5.97;;;3.95;;
18748;SDS011;9503;53.560;10.246;2022-08-07T08:22:33;6.00;;;4.10;;
18748;SDS011;9503;53.560;10.246;2022-08-07T08:25:29;7.75;;;4.18;;
18748;SDS011;9503;53.560;10.246;2022-08-07T08:28:19;6.18;;;4.15;;
18748;SDS011;9503;53.560;10.246;2022-08-07T08:30:49;5.10;;;4.05;;
18748;SDS011;9503;53.560;10.246;2022-08-07T08:33:23;4.93;;;3.47;;
18748;SDS011;9503;53.560;10.246;2022-08-07T08:35:54;5.13;;;4.00;;
18748;SDS011;9503;53.560;10.246;2022-08-07T08:38:25;4.82;;;3.70;;
18748;SDS011;9503;53.560;10.246;2022-08-07T08:41:00;4.50;;;4.03;;
18748;SDS011;9503;53.560;10.246;2022-08-07T08:43:34;5.90;;;4.05;;
18748;SDS011;9503;53.560;10.246;2022-08-07T08:46:08;9.07;;;3.95;;
18748;SDS011;9503;53.560;10.246;2022-08-07T08:48:43;5.35;;;4.13;;
18748;SDS011;9503;53.560;10.246;2022-08-07T08:51:24;6.47;;;4.82;;
18748;SDS011;9503;53.560;10.246;2022-08-07T08:54:01;7.00;;;4.05;;
18748;SDS011;9503;53.560;10.246;2022-08-07T08:56:37;4.55;;;3.70;;
18748;SDS011;9503;53.560;10.246;2022-08-07T08:59:11;6.13;;;4.00;;
18748;SDS011;9503;53.560;10.246;2022-08-07T09:01:48;6.45;;;4.85;;
18748;SDS011;9503;53.560;10.246;2022-08-07T09:04:24;5.93;;;4.38;;
18748;SDS011;9503;53.560;10.246;2022-08-07T09:07:05;6.43;;;3.75;;
18748;SDS011;9503;53.560;10.246;2022-08-07T09:09:40;5.88;;;3.88;;
18748;SDS011;9503;53.560;10.246;2022-08-07T09:12:28;6.57;;;4.00;;
18748;SDS011;9503;53.560;10.246;2022-08-07T09:15:14;4.53;;;4.05;;
18748;SDS011;9503;53.560;10.246;2022-08-07T09:18:07;8.15;;;4.20;;
18748;SDS011;9503;53.560;10.246;2022-08-07T09:20:45;7.93;;;4.50;;
18748;SDS011;9503;53.560;10.246;2022-08-07T09:23:25;4.82;;;4.07;;
18748;SDS011;9503;53.560;10.246;2022-08-07T09:26:03;4.88;;;3.88;;
18748;SDS011;9503;53.560;10.246;2022-08-07T09:28:45;4.80;;;3.75;;
18748;SDS011;9503;53.560;10.246;2022-08-07T09:31:22;5.63;;;3.85;;
18748;SDS011;9503;53.560;10.246;2022-08-07T09:34:01;6.85;;;4.20;;
18748;SDS011;9503;53.560;10.246;2022-08-07T09:36:38;5.90;;;4.20;;
18748;SDS011;9503;53.560;10.246;2022-08-07T09:39:19;5.93;;;4.15;;
18748;SDS011;9503;53.560;10.246;2022-08-07T09:41:56;4.38;;;3.95;;
18748;SDS011;9503;53.560;10.246;2022-08-07T09:44:36;6.30;;;4.30;;
18748;SDS011;9503;53.560;10.246;2022-08-07T09:47:16;5.03;;;4.22;;
18748;SDS011;9503;53.560;10.246;2022-08-07T09:49:56;9.02;;;4.50;;
18748;SDS011;9503;53.560;10.246;2022-08-07T09:52:29;7.28;;;4.32;;
18748;SDS011;9503;53.560;10.246;2022-08-07T09:55:03;7.28;;;4.40;;
18748;SDS011;9503;53.560;10.246;2022-08-07T10:00:35;8.50;;;4.20;;
18748;SDS011;9503;53.560;10.246;2022-08-07T10:06:36;5.20;;;4.40;;
18748;SDS011;9503;53.560;10.246;2022-08-07T10:09:42;4.57;;;4.15;;
18748;SDS011;9503;53.560;10.246;2022-08-07T10:12:29;5.10;;;3.92;;
18748;SDS011;9503;53.560;10.246;2022-08-07T10:15:21;5.88;;;4.05;;
18748;SDS011;9503;53.560;10.246;2022-08-07T10:18:10;4.43;;;3.92;;
18748;SDS011;9503;53.560;10.246;2022-08-07T10:20:53;6.78;;;3.80;;
18748;SDS011;9503;53.560;10.246;2022-08-07T10:23:39;5.30;;;4.10;;
18748;SDS011;9503;53.560;10.246;2022-08-07T10:26:24;3.90;;;3.50;;
18748;SDS011;9503;53.560;10.246;2022-08-07T10:29:03;6.25;;;3.67;;
18748;SDS011;9503;53.560;10.246;2022-08-07T10:31:47;5.05;;;3.95;;
18748;SDS011;9503;53.560;10.246;2022-08-07T10:34:29;4.18;;;3.78;;
18748;SDS011;9503;53.560;10.246;2022-08-07T10:37:11;5.95;;;3.80;;
18748;SDS011;9503;53.560;10.246;2022-08-07T10:39:52;5.07;;;3.90;;
18748;SDS011;9503;53.560;10.246;2022-08-07T10:42:30;6.55;;;4.10;;
18748;SDS011;9503;53.560;10.246;2022-08-07T10:45:02;4.47;;;3.55;;
18748;SDS011;9503;53.560;10.246;2022-08-07T10:47:41;4.93;;;3.78;;
18748;SDS011;9503;53.560;10.246;2022-08-07T10:50:16;4.43;;;3.50;;
18748;SDS011;9503;53.560;10.246;2022-08-07T10:52:50;3.70;;;3.25;;
18748;SDS011;9503;53.560;10.246;2022-08-07T10:55:25;4.90;;;3.38;;
18748;SDS011;9503;53.560;10.246;2022-08-07T10:57:58;8.13;;;3.53;;
18748;SDS011;9503;53.560;10.246;2022-08-07T11:00:35;5.25;;;3.90;;
18748;SDS011;9503;53.560;10.246;2022-08-07T11:03:15;4.45;;;3.13;;
18748;SDS011;9503;53.560;10.246;2022-08-07T11:05:51;4.38;;;3.95;;
18748;SDS011;9503;53.560;10.246;2022-08-07T11:08:25;5.70;;;4.10;;
18748;SDS011;9503;53.560;10.246;2022-08-07T11:10:58;5.18;;;4.00;;
18748;SDS011;9503;53.560;10.246;2022-08-07T11:13:29;5.60;;;3.95;;
18748;SDS011;9503;53.560;10.246;2022-08-07T11:16:03;5.28;;;3.38;;
18748;SDS011;9503;53.560;10.246;2022-08-07T11:18:34;4.30;;;3.58;;
18748;SDS011;9503;53.560;10.246;2022-08-07T11:21:06;4.05;;;3.60;;
18748;SDS011;9503;53.560;10.246;2022-08-07T11:23:44;6.97;;;4.35;;
18748;SDS011;9503;53.560;10.246;2022-08-07T11:26:19;5.45;;;4.15;;
18748;SDS011;9503;53.560;10.246;2022-08-07T11:28:53;6.03;;;3.90;;
18748;SDS011;9503;53.560;10.246;2022-08-07T11:31:27;5.63;;;4.78;;
18748;SDS011;9503;53.560;10.246;2022-08-07T11:34:09;4.95;;;4.20;;
18748;SDS011;9503;53.560;10.246;2022-08-07T11:36:48;9.18;;;4.28;;
18748;SDS011;9503;53.560;10.246;2022-08-07T11:39:28;6.57;;;4.05;;
18748;SDS011;9503;53.560;10.246;2022-08-07T11:42:13;5.00;;;3.72;;
18748;SDS011;9503;53.560;10.246;2022-08-07T11:44:46;4.43;;;3.88;;
18748;SDS011;9503;53.560;10.246;2022-08-07T11:47:35;4.38;;;3.70;;
18748;SDS011;9503;53.560;10.246;2022-08-07T11:50:15;6.88;;;3.83;;
18748;SDS011;9503;53.560;10.246;2022-08-07T11:52:59;4.50;;;3.83;;
18748;SDS011;9503;53.560;10.246;2022-08-07T11:55:32;3.97;;;3.58;;
18748;SDS011;9503;53.560;10.246;2022-08-07T11:58:15;4.68;;;3.58;;
18748;SDS011;9503;53.560;10.246;2022-08-07T12:00:54;4.00;;;3.58;;
18748;SDS011;9503;53.560;10.246;2022-08-07T12:03:41;4.25;;;3.53;;
18748;SDS011;9503;53.560;10.246;2022-08-07T12:06:24;5.72;;;3.80;;
18748;SDS011;9503;53.560;10.246;2022-08-07T12:09:01;6.10;;;4.15;;
18748;SDS011;9503;53.560;10.246;2022-08-07T12:11:33;5.88;;;4.18;;
18748;SDS011;9503;53.560;10.246;2022-08-07T12:14:06;4.35;;;3.95;;
18748;SDS011;9503;53.560;10.246;2022-08-07T12:16:45;6.20;;;3.72;;
18748;SDS011;9503;53.560;10.246;2022-08-07T12:19:16;6.03;;;4.22;;
18748;SDS011;9503;53.560;10.246;2022-08-07T12:21:50;4.53;;;3.92;;
18748;SDS011;9503;53.560;10.246;2022-08-07T12:24:26;7.05;;;3.63;;
18748;SDS011;9503;53.560;10.246;2022-08-07T12:27:00;3.95;;;3.45;;
18748;SDS011;9503;53.560;10.246;2022-08-07T12:29:34;4.60;;;3.30;;
18748;SDS011;9503;53.560;10.246;2022-08-07T12:32:10;6.75;;;3.70;;
18748;SDS011;9503;53.560;10.246;2022-08-07T12:34:40;4.38;;;3.67;;
18748;SDS011;9503;53.560;10.246;2022-08-07T12:37:10;5.47;;;3.63;;
18748;SDS011;9503;53.560;10.246;2022-08-07T12:39:41;3.95;;;3.45;;
18748;SDS011;9503;53.560;10.246;2022-08-07T12:42:11;5.20;;;3.38;;
18748;SDS011;9503;53.560;10.246;2022-08-07T12:44:46;4.80;;;3.53;;
18748;SDS011;9503;53.560;10.246;2022-08-07T12:47:17;6.55;;;3.75;;
18748;SDS011;9503;53.560;10.246;2022-08-07T12:49:55;4.40;;;4.00;;
18748;SDS011;9503;53.560;10.246;2022-08-07T12:52:28;6.88;;;3.75;;
18748;SDS011;9503;53.560;10.246;2022-08-07T12:55:07;5.22;;;3.28;;
18748;SDS011;9503;53.560;10.246;2022-08-07T12:57:39;5.63;;;3.53;;
18748;SDS011;9503;53.560;10.246;2022-08-07T13:00:08;4.25;;;3.70;;
18748;SDS011;9503;53.560;10.246;2022-08-07T13:02:41;4.10;;;3.55;;
18748;SDS011;9503;53.560;10.246;2022-08-07T13:05:17;4.93;;;3.13;;
18748;SDS011;9503;53.560;10.246;2022-08-07T13:08:11;4.25;;;3.50;;
18748;SDS011;9503;53.560;10.246;2022-08-07T13:10:50;4.38;;;2.95;;
18748;SDS011;9503;53.560;10.246;2022-08-07T13:13:34;3.40;;;3.10;;
18748;SDS011;9503;53.560;10.246;2022-08-07T13:16:09;7.75;;;3.33;;
18748;SDS011;9503;53.560;10.246;2022-08-07T13:18:42;4.60;;;3.30;;
18748;SDS011;9503;53.560;10.246;2022-08-07T13:21:16;7.35;;;3.17;;
18748;SDS011;9503;53.560;10.246;2022-08-07T13:23:47;5.28;;;3.17;;
18748;SDS011;9503;53.560;10.246;2022-08-07T13:26:20;3.20;;;2.90;;
18748;SDS011;9503;53.560;10.246;2022-08-07T13:28:54;3.95;;;3.05;;
18748;SDS011;9503;53.560;10.246;2022-08-07T13:31:29;5.15;;;3.03;;
18748;SDS011;9503;53.560;10.246;2022-08-07T13:34:02;4.00;;;2.65;;
18748;SDS011;9503;53.560;10.246;2022-08-07T13:36:36;4.28;;;3.33;;
18748;SDS011;9503;53.560;10.246;2022-08-07T13:39:08;3.40;;;3.00;;
18748;SDS011;9503;53.560;10.246;2022-08-07T13:41:43;5.25;;;3.20;;
18748;SDS011;9503;53.560;10.246;2022-08-07T13:44:13;3.65;;;2.75;;
18748;SDS011;9503;53.560;10.246;2022-08-07T13:46:45;5.20;;;3.30;;
18748;SDS011;9503;53.560;10.246;2022-08-07T13:49:15;3.47;;;3.13;;
18748;SDS011;9503;53.560;10.246;2022-08-07T13:51:44;4.65;;;3.17;;
18748;SDS011;9503;53.560;10.246;2022-08-07T13:54:12;3.88;;;3.53;;
18748;SDS011;9503;53.560;10.246;2022-08-07T13:56:40;5.90;;;4.72;;
18748;SDS011;9503;53.560;10.246;2022-08-07T13:59:11;5.90;;;4.20;;
18748;SDS011;9503;53.560;10.246;2022-08-07T14:01:44;4.60;;;3.97;;
18748;SDS011;9503;53.560;10.246;2022-08-07T14:04:16;5.07;;;4.57;;
18748;SDS011;9503;53.560;10.246;2022-08-07T14:06:45;3.72;;;3.30;;
18748;SDS011;9503;53.560;10.246;2022-08-07T14:09:18;4.13;;;3.67;;
18748;SDS011;9503;53.560;10.246;2022-08-07T14:11:49;3.63;;;3.00;;
18748;SDS011;9503;53.560;10.246;2022-08-07T14:14:19;4.85;;;3.95;;
18748;SDS011;9503;53.560;10.246;2022-08-07T14:16:54;3.60;;;3.30;;
18748;SDS011;9503;53.560;10.246;2022-08-07T14:19:28;6.47;;;3.38;;
18748;SDS011;9503;53.560;10.246;2022-08-07T14:21:59;4.43;;;3.67;;
18748;SDS011;9503;53.560;10.246;2022-08-07T14:24:31;4.40;;;3.35;;
18748;SDS011;9503;53.560;10.246;2022-08-07T14:27:03;4.07;;;3.63;;
18748;SDS011;9503;53.560;10.246;2022-08-07T14:29:34;4.50;;;3.17;;
18748;SDS011;9503;53.560;10.246;2022-08-07T14:32:05;15.50;;;11.07;;
18748;SDS011;9503;53.560;10.246;2022-08-07T14:34:37;15.27;;;11.07;;
18748;SDS011;9503;53.560;10.246;2022-08-07T14:37:07;5.40;;;3.78;;
18748;SDS011;9503;53.560;10.246;2022-08-07T14:39:35;3.97;;;3.58;;
18748;SDS011;9503;53.560;10.246;2022-08-07T14:42:05;4.25;;;3.58;;
18748;SDS011;9503;53.560;10.246;2022-08-07T14:44:36;5.00;;;3.38;;
18748;SDS011;9503;53.560;10.246;2022-08-07T14:47:05;5.93;;;3.78;;
18748;SDS011;9503;53.560;10.246;2022-08-07T14:49:33;4.43;;;3.65;;
18748;SDS011;9503;53.560;10.246;2022-08-07T14:52:02;4.47;;;3.35;;
18748;SDS011;9503;53.560;10.246;2022-08-07T14:54:31;3.95;;;3.40;;
18748;SDS011;9503;53.560;10.246;2022-08-07T14:57:00;5.00;;;3.00;;
18748;SDS011;9503;53.560;10.246;2022-08-07T14:59:30;3.58;;;3.10;;
18748;SDS011;9503;53.560;10.246;2022-08-07T15:02:07;3.65;;;3.28;;
18748;SDS011;9503;53.560;10.246;2022-08-07T15:04:37;4.65;;;4.15;;
18748;SDS011;9503;53.560;10.246;2022-08-07T15:07:05;5.25;;;3.63;;
18748;SDS011;9503;53.560;10.246;2022-08-07T15:09:36;4.03;;;3.45;;
18748;SDS011;9503;53.560;10.246;2022-08-07T15:12:06;3.63;;;3.33;;
18748;SDS011;9503;53.560;10.246;2022-08-07T15:14:37;7.35;;;3.85;;
18748;SDS011;9503;53.560;10.246;2022-08-07T15:17:12;9.35;;;6.68;;